sensor_id;sensor_type;location;lat;lon;timestamp;pressure;altitude;pressure_sealevel;temperature;humidity
8697;BME280;4385;48.848;8.924;2023-07-29T00:00:34;96971.44;;;22.28;100.00
8697;BME280;4385;48.848;8.924;2023-07-29T00:02:59;96968.03;;;22.28;100.00
8697;BME280;4385;48.848;8.924;2023-07-29T00:05:24;96957.81;;;22.26;100.00
8697;BME280;4385;48.848;8.924;2023-07-29T00:07:49;96952.69;;;22.26;100.00
8697;BME280;4385;48.848;8.924;2023-07-29T00:10:15;96957.81;;;22.26;100.00
8697;BME280;4385;48.848;8.924;2023-07-29T00:12:41;96949.31;;;22.26;100.00
8697;BME280;4385;48.848;8.924;2023-07-29T00:15:07;96959.59;;;22.26;100.00
8697;BME280;4385;48.848;8.924;2023-07-29T00:17:32;96961.31;;;22.25;100.00
8697;BME280;4385;48.848;8.924;2023-07-29T00:19:57;96957.03;;;22.26;100.00
8697;BME280;4385;48.848;8.924;2023-07-29T00:22:22;96965.53;;;22.26;100.00
8697;BME280;4385;48.848;8.924;2023-07-29T00:24:52;96964.78;;;22.24;100.00
8697;BME280;4385;48.848;8.924;2023-07-29T00:27:19;96957.97;;;22.23;100.00
8697;BME280;4385;48.848;8.924;2023-07-29T00:29:45;96958.81;;;22.24;100.00
8697;BME280;4385;48.848;8.924;2023-07-29T00:32:10;96958.81;;;22.24;100.00
8697;BME280;4385;48.848;8.924;2023-07-29T00:34:35;96952.84;;;22.23;100.00
8697;BME280;4385;48.848;8.924;2023-07-29T00:37:00;96952.84;;;22.23;100.00
8697;BME280;4385;48.848;8.924;2023-07-29T00:39:26;96950.28;;;22.23;100.00
8697;BME280;4385;48.848;8.924;2023-07-29T00:41:51;96945.13;;;22.23;100.00
8697;BME280;4385;48.848;8.924;2023-07-29T00:44:16;96948.63;;;22.22;100.00
8697;BME280;4385;48.848;8.924;2023-07-29T00:46:42;96944.41;;;22.21;100.00
8697;BME280;4385;48.848;8.924;2023-07-29T00:49:10;96947.78;;;22.22;100.00
8697;BME280;4385;48.848;8.924;2023-07-29T00:51:35;96949.53;;;22.21;100.00
8697;BME280;4385;48.848;8.924;2023-07-29T00:54:02;96951.19;;;22.22;100.00
8697;BME280;4385;48.848;8.924;2023-07-29T00:56:27;96938.34;;;22.22;100.00
8697;BME280;4385;48.848;8.924;2023-07-29T00:58:52;96933.22;;;22.22;100.00
8697;BME280;4385;48.848;8.924;2023-07-29T01:01:24;96934.13;;;22.21;100.00
8697;BME280;4385;48.848;8.924;2023-07-29T01:03:49;96930.72;;;22.21;100.00
8697;BME280;4385;48.848;8.924;2023-07-29T01:09:55;96922.19;;;22.20;100.00
8697;BME280;4385;48.848;8.924;2023-07-29T01:18:04;96918.03;;;22.17;100.00
8697;BME280;4385;48.848;8.924;2023-07-29T01:20:32;96926.66;;;22.16;100.00
8697;BME280;4385;48.848;8.924;2023-07-29T01:22:58;96924.16;;;22.15;100.00
8697;BME280;4385;48.848;8.924;2023-07-29T01:25:23;96922.41;;;22.15;100.00
8697;BME280;4385;48.848;8.924;2023-07-29T01:27:49;96917.34;;;22.14;100.00
8697;BME280;4385;48.848;8.924;2023-07-29T01:30:17;96927.59;;;22.14;100.00
8697;BME280;4385;48.848;8.924;2023-07-29T01:35:19;96915.00;;;22.09;100.00
8697;BME280;4385;48.848;8.924;2023-07-29T01:37:49;96915.75;;;22.11;100.00
8697;BME280;4385;48.848;8.924;2023-07-29T01:40:17;96908.06;;;22.11;100.00
8697;BME280;4385;48.848;8.924;2023-07-29T01:42:42;96914.03;;;22.12;100.00
8697;BME280;4385;48.848;8.924;2023-07-29T01:45:08;96914.03;;;22.12;100.00
8697;BME280;4385;48.848;8.924;2023-07-29T01:47:34;96909.72;;;22.12;100.00
8697;BME280;4385;48.848;8.924;2023-07-29T01:49:59;96908.91;;;22.12;100.00
8697;BME280;4385;48.848;8.924;2023-07-29T01:52:24;96894.31;;;22.12;100.00
8697;BME280;4385;48.848;8.924;2023-07-29T01:54:50;96898.63;;;22.12;100.00
8697;BME280;4385;48.848;8.924;2023-07-29T01:57:15;96896.06;;;22.12;100.00
8697;BME280;4385;48.848;8.924;2023-07-29T01:59:40;96896.06;;;22.12;100.00
8697;BME280;4385;48.848;8.924;2023-07-29T02:02:05;96892.59;;;22.13;100.00
8697;BME280;4385;48.848;8.924;2023-07-29T02:04:31;96897.72;;;22.13;100.00
8697;BME280;4385;48.848;8.924;2023-07-29T02:06:56;96901.22;;;22.12;100.00
8697;BME280;4385;48.848;8.924;2023-07-29T02:09:21;96896.06;;;22.12;100.00
8697;BME280;4385;48.848;8.924;2023-07-29T02:11:47;96888.38;;;22.12;100.00
8697;BME280;4385;48.848;8.924;2023-07-29T02:14:12;96889.19;;;22.12;100.00
8697;BME280;4385;48.848;8.924;2023-07-29T02:16:37;96889.25;;;22.11;100.00
8697;BME280;4385;48.848;8.924;2023-07-29T02:19:04;96891.81;;;22.11;100.00
8697;BME280;4385;48.848;8.924;2023-07-29T02:21:29;96895.16;;;22.13;100.00
8697;BME280;4385;48.848;8.924;2023-07-29T02:23:54;96886.56;;;22.14;100.00
8697;BME280;4385;48.848;8.924;2023-07-29T02:26:19;96888.31;;;22.13;100.00
8697;BME280;4385;48.848;8.924;2023-07-29T02:28:45;96884.06;;;22.12;100.00
8697;BME280;4385;48.848;8.924;2023-07-29T02:31:20;96887.47;;;22.13;100.00
8697;BME280;4385;48.848;8.924;2023-07-29T02:33:46;96887.53;;;22.11;100.00
8697;BME280;4385;48.848;8.924;2023-07-29T02:36:12;96889.25;;;22.11;100.00
8697;BME280;4385;48.848;8.924;2023-07-29T02:38:38;96889.25;;;22.11;100.00
8697;BME280;4385;48.848;8.924;2023-07-29T02:41:04;96897.03;;;22.09;100.00
8697;BME280;4385;48.848;8.924;2023-07-29T02:43:29;96890.25;;;22.08;100.00
8697;BME280;4385;48.848;8.924;2023-07-29T02:45:54;96890.31;;;22.07;100.00
8697;BME280;4385;48.848;8.924;2023-07-29T02:48:20;96890.31;;;22.07;100.00
8697;BME280;4385;48.848;8.924;2023-07-29T02:50:45;96881.84;;;22.04;100.00
8697;BME280;4385;48.848;8.924;2023-07-29T02:53:10;96875.06;;;22.03;100.00
8697;BME280;4385;48.848;8.924;2023-07-29T02:55:39;96869.09;;;22.03;100.00
8697;BME280;4385;48.848;8.924;2023-07-29T02:58:04;96868.28;;;22.02;100.00
8697;BME280;4385;48.848;8.924;2023-07-29T03:00:31;96861.47;;;22.01;100.00
8697;BME280;4385;48.848;8.924;2023-07-29T03:02:56;96864.81;;;22.03;100.00
8697;BME280;4385;48.848;8.924;2023-07-29T03:05:22;96857.19;;;22.02;100.00
8697;BME280;4385;48.848;8.924;2023-07-29T03:07:47;96859.69;;;22.03;100.00
8697;BME280;4385;48.848;8.924;2023-07-29T03:10:12;96864.81;;;22.03;100.00
8697;BME280;4385;48.848;8.924;2023-07-29T03:12:38;96852.81;;;22.04;100.00
8697;BME280;4385;48.848;8.924;2023-07-29T03:15:04;96862.25;;;22.03;100.00
8697;BME280;4385;48.848;8.924;2023-07-29T03:17:29;96859.69;;;22.03;100.00
8697;BME280;4385;48.848;8.924;2023-07-29T03:19:54;96857.13;;;22.03;100.00
8697;BME280;4385;48.848;8.924;2023-07-29T03:22:20;96857.13;;;22.03;100.00
8697;BME280;4385;48.848;8.924;2023-07-29T03:24:45;96855.47;;;22.02;100.00
8697;BME280;4385;48.848;8.924;2023-07-29T03:27:10;96855.47;;;22.02;100.00
8697;BME280;4385;48.848;8.924;2023-07-29T03:29:36;96856.28;;;22.03;100.00
8697;BME280;4385;48.848;8.924;2023-07-29T03:32:01;96855.47;;;22.02;100.00
8697;BME280;4385;48.848;8.924;2023-07-29T03:34:26;96848.56;;;22.03;100.00
8697;BME280;4385;48.848;8.924;2023-07-29T03:36:51;96857.19;;;22.02;100.00
8697;BME280;4385;48.848;8.924;2023-07-29T03:39:17;96861.47;;;22.01;100.00
8697;BME280;4385;48.848;8.924;2023-07-29T03:41:42;96847.00;;;22.00;100.00
8697;BME280;4385;48.848;8.924;2023-07-29T03:44:07;96848.72;;;22.00;100.00
8697;BME280;4385;48.848;8.924;2023-07-29T03:46:33;96851.34;;;21.98;100.00
8697;BME280;4385;48.848;8.924;2023-07-29T03:48:58;96847.06;;;21.99;100.00
8697;BME280;4385;48.848;8.924;2023-07-29T03:51:23;96855.69;;;21.98;100.00
8697;BME280;4385;48.848;8.924;2023-07-29T03:53:50;96849.69;;;21.97;100.00
8697;BME280;4385;48.848;8.924;2023-07-29T03:56:15;96855.75;;;21.96;100.00
8697;BME280;4385;48.848;8.924;2023-07-29T03:58:40;96859.97;;;21.97;100.00
8697;BME280;4385;48.848;8.924;2023-07-29T04:01:06;96846.28;;;21.97;100.00
8697;BME280;4385;48.848;8.924;2023-07-29T04:03:33;96835.16;;;21.98;100.00
8697;BME280;4385;48.848;8.924;2023-07-29T04:05:59;96835.09;;;21.99;100.00
8697;BME280;4385;48.848;8.924;2023-07-29T04:08:24;96834.16;;;22.00;100.00
8697;BME280;4385;48.848;8.924;2023-07-29T04:10:50;96839.31;;;22.00;100.00
8697;BME280;4385;48.848;8.924;2023-07-29T04:13:15;96846.16;;;22.00;100.00
8697;BME280;4385;48.848;8.924;2023-07-29T04:15:40;96843.59;;;22.00;100.00
8697;BME280;4385;48.848;8.924;2023-07-29T04:18:05;96848.72;;;22.00;100.00
8697;BME280;4385;48.848;8.924;2023-07-29T04:20:31;96859.06;;;21.98;100.00
8697;BME280;4385;48.848;8.924;2023-07-29T04:22:56;96867.66;;;21.97;100.00
8697;BME280;4385;48.848;8.924;2023-07-29T04:25:21;96862.53;;;21.97;100.00
8697;BME280;4385;48.848;8.924;2023-07-29T04:27:47;96869.38;;;21.97;100.00
8697;BME280;4385;48.848;8.924;2023-07-29T04:30:12;96853.19;;;21.96;100.00
8697;BME280;4385;48.848;8.924;2023-07-29T04:32:37;96889.09;;;21.96;100.00
8697;BME280;4385;48.848;8.924;2023-07-29T04:35:03;96873.69;;;21.96;100.00
8697;BME280;4385;48.848;8.924;2023-07-29T04:37:28;96893.38;;;21.96;100.00
8697;BME280;4385;48.848;8.924;2023-07-29T04:39:53;96887.41;;;21.95;100.00
8697;BME280;4385;48.848;8.924;2023-07-29T04:42:18;96884.84;;;21.95;100.00
8697;BME280;4385;48.848;8.924;2023-07-29T04:44:44;96864.41;;;21.93;100.00
8697;BME280;4385;48.848;8.924;2023-07-29T04:47:09;96861.03;;;21.93;100.00
8697;BME280;4385;48.848;8.924;2023-07-29T04:49:35;96849.91;;;21.92;100.00
8697;BME280;4385;48.848;8.924;2023-07-29T04:52:00;96843.94;;;21.92;100.00
8697;BME280;4385;48.848;8.924;2023-07-29T04:54:25;96843.94;;;21.92;100.00
8697;BME280;4385;48.848;8.924;2023-07-29T04:56:50;96850.84;;;21.91;100.00
8697;BME280;4385;48.848;8.924;2023-07-29T04:59:16;96844.03;;;21.90;100.00
8697;BME280;4385;48.848;8.924;2023-07-29T05:01:42;96840.66;;;21.90;100.00
8697;BME280;4385;48.848;8.924;2023-07-29T05:04:08;96842.38;;;21.89;100.00
8697;BME280;4385;48.848;8.924;2023-07-29T05:06:33;96840.66;;;21.90;100.00
8697;BME280;4385;48.848;8.924;2023-07-29T05:09:12;96834.66;;;21.89;100.00
8697;BME280;4385;48.848;8.924;2023-07-29T05:11:37;96827.81;;;21.90;100.00
8697;BME280;4385;48.848;8.924;2023-07-29T05:14:03;96827.81;;;21.90;100.00
8697;BME280;4385;48.848;8.924;2023-07-29T05:16:31;96823.50;;;21.90;100.00
8697;BME280;4385;48.848;8.924;2023-07-29T05:18:56;96827.81;;;21.90;100.00
8697;BME280;4385;48.848;8.924;2023-07-29T05:21:21;96830.38;;;21.90;100.00
8697;BME280;4385;48.848;8.924;2023-07-29T05:23:47;96826.06;;;21.90;100.00
8697;BME280;4385;48.848;8.924;2023-07-29T05:26:12;96822.69;;;21.90;100.00
8697;BME280;4385;48.848;8.924;2023-07-29T05:28:37;96833.84;;;21.89;100.00
8697;BME280;4385;48.848;8.924;2023-07-29T05:31:03;96836.41;;;21.89;100.00
8697;BME280;4385;48.848;8.924;2023-07-29T05:33:28;96841.44;;;21.90;100.00
8697;BME280;4385;48.848;8.924;2023-07-29T05:35:54;96848.34;;;21.90;100.00
8697;BME280;4385;48.848;8.924;2023-07-29T05:38:19;96853.47;;;21.90;100.00
8697;BME280;4385;48.848;8.924;2023-07-29T05:40:44;96856.91;;;21.89;100.00
8697;BME280;4385;48.848;8.924;2023-07-29T05:43:10;96860.31;;;21.89;100.00
8697;BME280;4385;48.848;8.924;2023-07-29T05:45:35;96862.03;;;21.89;100.00
8697;BME280;4385;48.848;8.924;2023-07-29T05:48:01;96856.09;;;21.88;100.00
8697;BME280;4385;48.848;8.924;2023-07-29T05:50:26;96847.56;;;21.88;100.00
8697;BME280;4385;48.848;8.924;2023-07-29T05:52:51;96845.00;;;21.88;100.00
8697;BME280;4385;48.848;8.924;2023-07-29T05:55:17;96845.00;;;21.88;100.00
8697;BME280;4385;48.848;8.924;2023-07-29T05:57:42;96845.00;;;21.88;100.00
8697;BME280;4385;48.848;8.924;2023-07-29T06:00:07;96836.47;;;21.87;100.00
8697;BME280;4385;48.848;8.924;2023-07-29T06:02:33;96838.22;;;21.87;100.00
8697;BME280;4385;48.848;8.924;2023-07-29T06:04:58;96831.34;;;21.87;100.00
8697;BME280;4385;48.848;8.924;2023-07-29T06:07:24;96841.66;;;21.86;100.00
8697;BME280;4385;48.848;8.924;2023-07-29T06:09:53;96841.66;;;21.86;100.00
8697;BME280;4385;48.848;8.924;2023-07-29T06:12:20;96840.84;;;21.85;100.00
8697;BME280;4385;48.848;8.924;2023-07-29T06:14:45;96836.53;;;21.86;100.00
8697;BME280;4385;48.848;8.924;2023-07-29T06:17:10;96846.81;;;21.86;100.00
8697;BME280;4385;48.848;8.924;2023-07-29T06:19:36;96845.16;;;21.85;100.00
8697;BME280;4385;48.848;8.924;2023-07-29T06:22:02;96852.84;;;21.85;100.00
8697;BME280;4385;48.848;8.924;2023-07-29T06:24:27;96852.84;;;21.85;100.00
8697;BME280;4385;48.848;8.924;2023-07-29T06:26:52;96862.19;;;21.86;100.00
8697;BME280;4385;48.848;8.924;2023-07-29T06:29:18;96872.44;;;21.86;100.00
8697;BME280;4385;48.848;8.924;2023-07-29T06:31:43;96863.88;;;21.87;100.00
8697;BME280;4385;48.848;8.924;2023-07-29T06:34:08;96869.00;;;21.87;100.00
8697;BME280;4385;48.848;8.924;2023-07-29T06:36:33;96868.16;;;21.86;100.00
8697;BME280;4385;48.848;8.924;2023-07-29T06:38:59;96874.88;;;21.89;100.00
8697;BME280;4385;48.848;8.924;2023-07-29T06:41:24;96859.56;;;21.87;100.00
8697;BME280;4385;48.848;8.924;2023-07-29T06:43:49;96874.88;;;21.89;100.00
8697;BME280;4385;48.848;8.924;2023-07-29T06:46:14;96868.94;;;21.88;100.00
8697;BME280;4385;48.848;8.924;2023-07-29T06:48:40;96875.78;;;21.88;100.00
8697;BME280;4385;48.848;8.924;2023-07-29T06:51:05;96876.63;;;21.88;100.00
8697;BME280;4385;48.848;8.924;2023-07-29T06:53:30;96887.69;;;21.89;100.00
8697;BME280;4385;48.848;8.924;2023-07-29T06:55:56;96886.88;;;21.88;100.00
8697;BME280;4385;48.848;8.924;2023-07-29T06:58:21;96891.16;;;21.88;100.00
8697;BME280;4385;48.848;8.924;2023-07-29T07:00:46;96892.00;;;21.88;100.00
8697;BME280;4385;48.848;8.924;2023-07-29T07:03:12;96882.56;;;21.89;100.00
8697;BME280;4385;48.848;8.924;2023-07-29T07:05:37;96888.59;;;21.88;100.00
8697;BME280;4385;48.848;8.924;2023-07-29T07:08:03;96890.25;;;21.89;100.00
8697;BME280;4385;48.848;8.924;2023-07-29T07:10:28;96886.03;;;21.88;100.00
8697;BME280;4385;48.848;8.924;2023-07-29T07:12:53;96891.16;;;21.88;100.00
8697;BME280;4385;48.848;8.924;2023-07-29T07:15:18;96892.81;;;21.89;100.00
8697;BME280;4385;48.848;8.924;2023-07-29T07:17:44;96890.31;;;21.87;100.00
8697;BME280;4385;48.848;8.924;2023-07-29T07:20:10;96897.13;;;21.88;100.00
8697;BME280;4385;48.848;8.924;2023-07-29T07:22:35;96900.59;;;21.87;100.00
8697;BME280;4385;48.848;8.924;2023-07-29T07:25:00;96901.50;;;21.86;100.00
8697;BME280;4385;48.848;8.924;2023-07-29T07:27:26;96894.66;;;21.87;100.00
8697;BME280;4385;48.848;8.924;2023-07-29T07:29:51;96906.63;;;21.86;100.00
8697;BME280;4385;48.848;8.924;2023-07-29T07:32:16;96903.22;;;21.86;100.00
8697;BME280;4385;48.848;8.924;2023-07-29T07:34:41;96905.78;;;21.86;100.00
8697;BME280;4385;48.848;8.924;2023-07-29T07:37:07;96901.56;;;21.85;100.00
8697;BME280;4385;48.848;8.924;2023-07-29T07:39:32;96907.47;;;21.87;100.00
8697;BME280;4385;48.848;8.924;2023-07-29T07:41:57;96908.34;;;21.86;100.00
8697;BME280;4385;48.848;8.924;2023-07-29T07:44:23;96890.41;;;21.86;100.00
8697;BME280;4385;48.848;8.924;2023-07-29T07:46:51;96886.19;;;21.85;100.00
8697;BME280;4385;48.848;8.924;2023-07-29T07:49:16;96901.56;;;21.85;100.00
8697;BME280;4385;48.848;8.924;2023-07-29T07:51:43;96886.19;;;21.85;100.00
8697;BME280;4385;48.848;8.924;2023-07-29T07:54:09;96887.84;;;21.86;100.00
8697;BME280;4385;48.848;8.924;2023-07-29T07:56:34;96883.63;;;21.85;100.00
8697;BME280;4385;48.848;8.924;2023-07-29T07:58:59;96881.88;;;21.85;100.00
8697;BME280;4385;48.848;8.924;2023-07-29T08:01:24;96887.84;;;21.86;100.00
8697;BME280;4385;48.848;8.924;2023-07-29T08:03:50;96887.84;;;21.86;100.00
8697;BME280;4385;48.848;8.924;2023-07-29T08:06:15;96892.16;;;21.85;100.00
8697;BME280;4385;48.848;8.924;2023-07-29T08:08:40;96903.22;;;21.86;100.00
8697;BME280;4385;48.848;8.924;2023-07-29T08:11:05;96910.03;;;21.87;100.00
8697;BME280;4385;48.848;8.924;2023-07-29T08:13:31;96914.25;;;21.88;100.00
8697;BME280;4385;48.848;8.924;2023-07-29T08:15:56;96910.78;;;21.89;100.00
8697;BME280;4385;48.848;8.924;2023-07-29T08:18:21;96916.75;;;21.89;100.00
8697;BME280;4385;48.848;8.924;2023-07-29T08:20:57;96921.81;;;21.91;100.00
8697;BME280;4385;48.848;8.924;2023-07-29T08:23:26;96924.38;;;21.91;100.00
8697;BME280;4385;48.848;8.924;2023-07-29T08:25:57;96924.31;;;21.92;100.00
8697;BME280;4385;48.848;8.924;2023-07-29T08:28:27;96921.72;;;21.92;100.00
8697;BME280;4385;48.848;8.924;2023-07-29T08:30:53;96932.06;;;21.91;100.00
8697;BME280;4385;48.848;8.924;2023-07-29T08:33:19;96925.13;;;21.93;100.00
8697;BME280;4385;48.848;8.924;2023-07-29T08:35:44;96921.66;;;21.94;100.00
8697;BME280;4385;48.848;8.924;2023-07-29T08:38:09;96926.78;;;21.94;100.00
8697;BME280;4385;48.848;8.924;2023-07-29T08:40:35;96918.25;;;21.93;100.00
8697;BME280;4385;48.848;8.924;2023-07-29T08:43:04;96923.38;;;21.93;100.00
8697;BME280;4385;48.848;8.924;2023-07-29T08:45:34;96916.53;;;21.94;100.00
8697;BME280;4385;48.848;8.924;2023-07-29T08:48:02;96920.75;;;21.95;100.00
8697;BME280;4385;48.848;8.924;2023-07-29T08:50:29;96913.97;;;21.94;100.00
8697;BME280;4385;48.848;8.924;2023-07-29T08:52:57;96922.50;;;21.95;100.00
8697;BME280;4385;48.848;8.924;2023-07-29T08:55:23;96932.78;;;21.95;100.00
8697;BME280;4385;48.848;8.924;2023-07-29T08:57:48;96922.50;;;21.95;100.00
8697;BME280;4385;48.848;8.924;2023-07-29T09:00:14;96918.19;;;21.95;100.00
8697;BME280;4385;48.848;8.924;2023-07-29T09:02:39;96920.81;;;21.93;100.00
8697;BME280;4385;48.848;8.924;2023-07-29T09:05:05;96914.81;;;21.95;100.00
8697;BME280;4385;48.848;8.924;2023-07-29T09:07:32;96907.94;;;21.95;100.00
8697;BME280;4385;48.848;8.924;2023-07-29T09:09:59;96899.34;;;21.96;100.00
8697;BME280;4385;48.848;8.924;2023-07-29T09:12:24;96900.16;;;21.97;100.00
8697;BME280;4385;48.848;8.924;2023-07-29T09:14:52;96895.03;;;21.97;100.00
8697;BME280;4385;48.848;8.924;2023-07-29T09:17:19;96900.16;;;21.97;100.00
8697;BME280;4385;48.848;8.924;2023-07-29T09:19:48;96895.03;;;21.97;100.00
8697;BME280;4385;48.848;8.924;2023-07-29T09:22:18;96889.91;;;21.97;100.00
8697;BME280;4385;48.848;8.924;2023-07-29T09:24:45;96895.88;;;21.97;100.00
8697;BME280;4385;48.848;8.924;2023-07-29T09:27:23;96891.59;;;21.98;100.00
8697;BME280;4385;48.848;8.924;2023-07-29T09:29:48;96885.63;;;21.97;100.00
8697;BME280;4385;48.848;8.924;2023-07-29T09:32:18;96892.41;;;21.98;100.00
8697;BME280;4385;48.848;8.924;2023-07-29T09:34:44;96892.41;;;21.98;100.00
8697;BME280;4385;48.848;8.924;2023-07-29T09:37:09;96909.47;;;21.99;100.00
8697;BME280;4385;48.848;8.924;2023-07-29T09:39:34;96911.97;;;22.01;100.00
8697;BME280;4385;48.848;8.924;2023-07-29T09:42:00;96911.13;;;22.00;100.00
8697;BME280;4385;48.848;8.924;2023-07-29T09:44:25;96911.97;;;22.01;100.00
8697;BME280;4385;48.848;8.924;2023-07-29T09:46:50;96912.78;;;22.01;100.00
8697;BME280;4385;48.848;8.924;2023-07-29T09:49:15;96930.72;;;22.01;100.00
8697;BME280;4385;48.848;8.924;2023-07-29T09:51:41;96934.16;;;22.02;100.00
8697;BME280;4385;48.848;8.924;2023-07-29T09:54:06;96959.72;;;22.03;100.00
8697;BME280;4385;48.848;8.924;2023-07-29T09:56:32;96962.28;;;22.03;100.00
8697;BME280;4385;48.848;8.924;2023-07-29T09:58:57;96953.69;;;22.04;100.00
8697;BME280;4385;48.848;8.924;2023-07-29T10:01:23;96948.56;;;22.04;100.00
8697;BME280;4385;48.848;8.924;2023-07-29T10:03:49;96945.97;;;22.04;100.00
8697;BME280;4385;48.848;8.924;2023-07-29T10:06:15;96930.66;;;22.03;100.00
8697;BME280;4385;48.848;8.924;2023-07-29T10:08:42;96931.50;;;22.03;100.00
8697;BME280;4385;48.848;8.924;2023-07-29T10:11:09;96933.16;;;22.04;100.00
8697;BME280;4385;48.848;8.924;2023-07-29T10:13:35;96933.16;;;22.04;100.00
8697;BME280;4385;48.848;8.924;2023-07-29T10:16:01;96934.00;;;22.05;100.00
8697;BME280;4385;48.848;8.924;2023-07-29T10:18:31;96935.66;;;22.06;100.00
8697;BME280;4385;48.848;8.924;2023-07-29T10:20:58;96942.53;;;22.05;100.00
8697;BME280;4385;48.848;8.924;2023-07-29T10:23:26;96935.72;;;22.04;100.00
8697;BME280;4385;48.848;8.924;2023-07-29T10:26:02;96942.59;;;22.04;100.00
8697;BME280;4385;48.848;8.924;2023-07-29T10:28:30;96943.41;;;22.04;100.00
8697;BME280;4385;48.848;8.924;2023-07-29T10:30:56;96943.41;;;22.04;100.00
8697;BME280;4385;48.848;8.924;2023-07-29T10:33:22;96947.66;;;22.05;100.00
8697;BME280;4385;48.848;8.924;2023-07-29T10:35:47;96939.97;;;22.05;100.00
8697;BME280;4385;48.848;8.924;2023-07-29T10:38:13;96939.97;;;22.05;100.00
8697;BME280;4385;48.848;8.924;2023-07-29T10:40:47;96934.84;;;22.05;100.00
8697;BME280;4385;48.848;8.924;2023-07-29T10:43:19;96935.66;;;22.06;100.00
8697;BME280;4385;48.848;8.924;2023-07-29T10:45:48;96925.38;;;22.06;100.00
8697;BME280;4385;48.848;8.924;2023-07-29T10:54:11;96939.91;;;22.07;100.00
8697;BME280;4385;48.848;8.924;2023-07-29T10:56:44;96938.16;;;22.08;100.00
8697;BME280;4385;48.848;8.924;2023-07-29T11:01:39;96937.34;;;22.07;100.00
8697;BME280;4385;48.848;8.924;2023-07-29T11:15:04;96933.09;;;22.06;100.00
8697;BME280;4385;48.848;8.924;2023-07-29T11:17:32;96918.53;;;22.07;100.00
8697;BME280;4385;48.848;8.924;2023-07-29T11:20:01;96910.84;;;22.07;100.00
8697;BME280;4385;48.848;8.924;2023-07-29T11:22:26;96910.84;;;22.07;100.00
8697;BME280;4385;48.848;8.924;2023-07-29T11:24:53;96913.34;;;22.08;100.00
8697;BME280;4385;48.848;8.924;2023-07-29T11:27:18;96909.94;;;22.08;100.00
8697;BME280;4385;48.848;8.924;2023-07-29T11:29:43;96910.78;;;22.08;100.00
8697;BME280;4385;48.848;8.924;2023-07-29T11:32:09;96906.47;;;22.09;100.00
8697;BME280;4385;48.848;8.924;2023-07-29T11:34:34;96912.50;;;22.08;100.00
8697;BME280;4385;48.848;8.924;2023-07-29T11:37:00;96908.06;;;22.11;100.00
8697;BME280;4385;48.848;8.924;2023-07-29T11:39:25;96907.22;;;22.11;100.00
8697;BME280;4385;48.848;8.924;2023-07-29T11:41:51;96904.59;;;22.12;100.00
8697;BME280;4385;48.848;8.924;2023-07-29T11:44:17;96892.44;;;22.16;100.00
8697;BME280;4385;48.848;8.924;2023-07-29T11:46:43;96896.66;;;22.17;100.00
8697;BME280;4385;48.848;8.924;2023-07-29T11:49:08;96891.53;;;22.17;100.00
8697;BME280;4385;48.848;8.924;2023-07-29T11:51:34;96893.22;;;22.18;100.00
8697;BME280;4385;48.848;8.924;2023-07-29T11:54:00;96892.31;;;22.19;100.00
8697;BME280;4385;48.848;8.924;2023-07-29T11:56:25;96896.53;;;22.20;100.00
8697;BME280;4385;48.848;8.924;2023-07-29T11:58:51;96896.53;;;22.20;100.00
8697;BME280;4385;48.848;8.924;2023-07-29T12:01:16;96898.22;;;22.21;100.00
8697;BME280;4385;48.848;8.924;2023-07-29T12:03:42;96892.16;;;22.22;100.00
8697;BME280;4385;48.848;8.924;2023-07-29T12:06:08;96896.47;;;22.22;100.00
8697;BME280;4385;48.848;8.924;2023-07-29T12:08:34;96886.25;;;22.20;100.00
8697;BME280;4385;48.848;8.924;2023-07-29T12:10:59;96899.88;;;22.22;100.00
8697;BME280;4385;48.848;8.924;2023-07-29T12:13:25;96890.44;;;22.23;100.00
8697;BME280;4385;48.848;8.924;2023-07-29T12:15:50;96893.81;;;22.23;100.00
8697;BME280;4385;48.848;8.924;2023-07-29T12:18:16;96886.13;;;22.23;100.00
8697;BME280;4385;48.848;8.924;2023-07-29T12:20:41;96894.66;;;22.24;100.00
8697;BME280;4385;48.848;8.924;2023-07-29T12:23:07;96888.59;;;22.25;100.00
8697;BME280;4385;48.848;8.924;2023-07-29T12:25:34;96895.50;;;22.24;100.00
8697;BME280;4385;48.848;8.924;2023-07-29T12:28:06;96898.00;;;22.26;100.00
8697;BME280;4385;48.848;8.924;2023-07-29T12:30:31;96903.06;;;22.27;100.00
8697;BME280;4385;48.848;8.924;2023-07-29T12:32:57;96901.28;;;22.28;100.00
8697;BME280;4385;48.848;8.924;2023-07-29T12:35:22;96893.59;;;22.28;100.00
8697;BME280;4385;48.848;8.924;2023-07-29T12:37:58;96882.53;;;22.27;100.00
8697;BME280;4385;48.848;8.924;2023-07-29T12:40:24;96890.16;;;22.29;100.00
8697;BME280;4385;48.848;8.924;2023-07-29T12:42:50;96885.00;;;22.29;100.00
8697;BME280;4385;48.848;8.924;2023-07-29T12:45:16;96877.38;;;22.27;100.00
8697;BME280;4385;48.848;8.924;2023-07-29T12:47:43;96885.81;;;22.29;100.00
8697;BME280;4385;48.848;8.924;2023-07-29T12:50:08;96887.59;;;22.29;100.00
8697;BME280;4385;48.848;8.924;2023-07-29T12:52:33;96885.81;;;22.29;100.00
8697;BME280;4385;48.848;8.924;2023-07-29T12:54:59;96888.41;;;22.29;100.00
8697;BME280;4385;48.848;8.924;2023-07-29T12:57:24;96879.97;;;22.27;100.00
8697;BME280;4385;48.848;8.924;2023-07-29T12:59:49;96880.69;;;22.29;100.00
8697;BME280;4385;48.848;8.924;2023-07-29T13:02:15;96882.53;;;22.27;100.00
8697;BME280;4385;48.848;8.924;2023-07-29T13:04:40;96884.19;;;22.28;100.00
8697;BME280;4385;48.848;8.924;2023-07-29T13:07:05;96879.97;;;22.27;100.00
8697;BME280;4385;48.848;8.924;2023-07-29T13:09:31;96881.75;;;22.25;100.00
8697;BME280;4385;48.848;8.924;2023-07-29T13:11:57;96879.19;;;22.25;100.00
8697;BME280;4385;48.848;8.924;2023-07-29T13:14:22;96891.09;;;22.26;100.00
8697;BME280;4385;48.848;8.924;2023-07-29T13:16:47;96879.88;;;22.29;100.00
8697;BME280;4385;48.848;8.924;2023-07-29T13:19:13;96879.75;;;22.32;100.00
8697;BME280;4385;48.848;8.924;2023-07-29T13:21:38;96879.66;;;22.34;100.00
8697;BME280;4385;48.848;8.924;2023-07-29T13:24:03;96878.75;;;22.35;100.00
8697;BME280;4385;48.848;8.924;2023-07-29T13:26:29;96876.94;;;22.37;100.00
8697;BME280;4385;48.848;8.924;2023-07-29T13:28:54;96885.38;;;22.39;100.00
8697;BME280;4385;48.848;8.924;2023-07-29T13:31:20;96880.25;;;22.39;100.00
8697;BME280;4385;48.848;8.924;2023-07-29T13:33:46;96873.41;;;22.39;100.00